Broceliande — FGA2432 — position and weather

sailwx.info

Track history (hours):
 
Tides and Currents Weather Stations Pressure Air Temp Water Temp Dewpoint Dewpoint Depression Visibility Wind Speed Wind Dir Waves Ship Positions

Broceliande

Last reported at 2018-Jun-09 10:13 UTC. Time now 2018-Jun-23 06:32 UTC.
Position N 47°27' W 002°58'.
Warning: this ship's position is 13 days out of date.

Length 7 m.

Type: Sailing vessel. MMSI: 227524040.

Date/timePositionNaut miles runAvg speedWind from/ knotsBaromVisibWave heightAir tempDewpointWater temp
2018-Jun-09 10:13N 47°27' W 002°58'2 5.6
2018-Jun-09 09:53N 47°29' W 002°57'1 3.8
2018-Jun-09 09:30N 47°30' W 002°56'2 4.4
2018-Jun-09 09:00N 47°32' W 002°55'  
2018-Jun-02 14:43N 47°32' W 002°54'1 2.8
2018-Jun-02 14:29N 47°31' W 002°54'1 2.9
2018-Jun-02 13:59N 47°30' W 002°53'4 2.9
2018-Jun-02 12:37N 47°26' W 002°52'0 2.8
2018-Jun-02 12:27N 47°26' W 002°52'1 2.7
2018-Jun-02 12:00N 47°28' W 002°52'2 3.1
2018-Jun-02 11:28N 47°29' W 002°53'1 2.2
2018-Jun-02 11:00N 47°30' W 002°53'2 4.2
2018-Jun-02 10:30N 47°32' W 002°55'  
Track history (hours):
 
Tides and Currents Weather Stations Pressure Air Temp Water Temp Dewpoint Dewpoint Depression Visibility Wind Speed Wind Dir Waves Ship Positions

Broceliande

Last reported at 2018-Jun-09 10:13 UTC. Time now 2018-Jun-23 06:32 UTC.
Position N 47°27' W 002°58'.
Warning: this ship's position is 13 days out of date.

Length 7 m.

Type: Sailing vessel. MMSI: 227524040.

Date/timePositionNaut miles runAvg speedWind from/ knotsBaromVisibWave heightAir tempDewpointWater temp
2018-Jun-09 10:13N 47°27' W 002°58'2 5.6
2018-Jun-09 09:53N 47°29' W 002°57'1 3.8
2018-Jun-09 09:30N 47°30' W 002°56'2 4.4
2018-Jun-09 09:00N 47°32' W 002°55'  
2018-Jun-02 14:43N 47°32' W 002°54'1 2.8
2018-Jun-02 14:29N 47°31' W 002°54'1 2.9
2018-Jun-02 13:59N 47°30' W 002°53'4 2.9
2018-Jun-02 12:37N 47°26' W 002°52'0 2.8
2018-Jun-02 12:27N 47°26' W 002°52'1 2.7
2018-Jun-02 12:00N 47°28' W 002°52'2 3.1
2018-Jun-02 11:28N 47°29' W 002°53'1 2.2
2018-Jun-02 11:00N 47°30' W 002°53'2 4.2
2018-Jun-02 10:30N 47°32' W 002°55'  

Dump ship's entire track history